PABR METAR and TAF weather

Enter ICAO airport designator
Station Type Date Time Source
PABR METAR 2021/09/20 04:55 UTC NOAA

PABR 200455Z 21015KT 1/2SM R08/4000VP6000FT SN FZFG FEW009 OVC020 M01/M03 A2931 RMK AO2 P0000 T10111028 $


Station Type Date Time Source
PABR Decoded METAR 2021/09/20 04:55 UTC NOAA

POST ROGERS MEMORIAL AIRPORT, AK, United States (PABR) 71-17N 156-46W 10M
Sep 20, 2021 - 12:55 AM EDT / 2021.09.20 0455 UTC
Wind: from the SSW (210 degrees) at 17 MPH (15 KT):0
Visibility: 1/2 mile(s):0
Sky conditions: overcast
Weather: snow; freezing fog
Precipitation last hour: A trace
Temperature: 30.0 F (-1.1 C)
Windchill: 17 F (-8 C):1
Dew Point: 27.0 F (-2.8 C)
Relative Humidity: 88%
Pressure (altimeter): 29.31 in. Hg (992 hPa)
ob: PABR 200455Z 21015KT 1/2SM R08/4000VP6000FT SN FZFG FEW009 OVC020 M01/M03 A2931 RMK AO2 P0000 T10111028
cycle: 5

Station Type Date Time Source
PABR TAF 2021/09/20 03:30 UTC NOAA

TAF
AMD PABR 200328Z 2003/2024 20015G20KT 3SM -SN BR BKN015 OVC035
TEMPO 2003/2007 1/2SM SN FZFG BKN010
FM200900 26019KT 3SM -SN BR OVC010

Example: see airport list